Time;durP1;ratioP1;P1;durP2;ratioP2;P2;SDS_P1;SDS_P2;PMS_P1;PMS_P2;Temp;Humidity;BMP_temperature;BMP_pressure;BME280_temperature;BME280_humidity;BME280_pressure;Samples;Min_cycle;Max_cycle;Signal;HPM_P1;HPM_P2
2024/03/17 00:01:22;;;;;;;343.50;87.80;;;6.60;99.90;8.60;97207.00;;;;5013583;28;20274;-83
2024/03/17 00:04:10;;;;;;;336.80;86.53;;;6.60;99.90;9.40;97200.00;;;;5012793;28;20788;-82
2024/03/17 00:06:58;;;;;;;339.83;87.57;;;6.80;99.90;9.50;97194.00;;;;5007513;28;20205;-82
2024/03/17 00:09:46;;;;;;;340.77;87.53;;;6.90;99.90;9.00;97203.00;;;;5015666;28;20211;-82
2024/03/17 00:12:34;;;;;;;340.43;87.50;;;7.00;99.90;9.00;97212.00;;;;5011155;28;20217;-83
2024/03/17 00:15:23;;;;;;;347.83;92.23;;;7.00;99.90;9.10;97223.00;;;;5012201;28;20209;-82
2024/03/17 00:18:11;;;;;;;340.13;86.87;;;6.90;99.90;9.40;97210.00;;;;5009121;28;20217;-83
2024/03/17 00:20:58;;;;;;;347.73;92.40;;;6.90;99.90;9.50;97212.00;;;;5039022;23;20228;-70
2024/03/17 00:23:46;;;;;;;351.33;93.90;;;7.00;99.90;9.40;97210.00;;;;5033934;28;20201;-71
2024/03/17 00:26:34;;;;;;;340.40;88.00;;;6.90;99.90;9.40;97206.00;;;;5033238;28;20568;-72
2024/03/17 00:29:22;;;;;;;350.87;92.77;;;6.90;99.90;9.30;97199.00;;;;5033505;28;20678;-72
2024/03/17 00:32:11;;;;;;;340.43;87.60;;;6.80;99.90;8.80;97206.00;;;;5028106;28;20212;-71
2024/03/17 00:34:59;;;;;;;340.07;88.37;;;6.70;99.90;8.50;97210.00;;;;5044561;28;20224;-71
2024/03/17 00:37:47;;;;;;;337.33;87.97;;;6.60;99.90;8.70;97199.00;;;;5048050;28;20200;-70
2024/03/17 00:40:34;;;;;;;342.10;89.10;;;6.50;99.90;8.90;97206.00;;;;5026783;28;20627;-70
2024/03/17 00:43:22;;;;;;;345.03;91.03;;;6.40;99.90;9.00;97213.00;;;;5030422;28;20216;-72
2024/03/17 00:46:09;;;;;;;341.27;91.33;;;6.40;99.90;8.50;97206.00;;;;5038252;28;20242;-69
2024/03/17 00:49:00;;;;;;;339.93;89.43;;;7.00;99.90;8.10;97215.00;;;;5024075;28;20738;-72
2024/03/17 00:51:49;;;;;;;332.40;82.63;;;6.20;99.90;7.70;97207.00;;;;5036236;28;20218;-72
2024/03/17 00:54:37;;;;;;;340.67;88.50;;;6.00;99.90;8.50;97209.00;;;;5048892;28;20238;-72
2024/03/17 00:57:25;;;;;;;348.03;95.17;;;6.00;99.90;8.40;97219.00;;;;5046991;28;20205;-71
2024/03/17 01:00:14;;;;;;;340.67;87.20;;;6.10;99.90;8.10;97204.00;;;;5030029;28;20208;-71
2024/03/17 01:03:02;;;;;;;338.80;87.93;;;6.00;99.90;8.50;97202.00;;;;5029326;28;20475;-71
2024/03/17 01:05:52;;;;;;;346.13;88.87;;;6.00;99.90;8.50;97218.00;;;;5034441;28;20639;-70
2024/03/17 01:08:40;;;;;;;335.90;82.70;;;6.00;99.90;8.30;97223.00;;;;5043418;28;20260;-68
2024/03/17 01:11:27;;;;;;;343.93;88.63;;;6.00;99.90;7.80;97226.00;;;;5046796;28;20200;-68
2024/03/17 01:14:15;;;;;;;345.20;89.70;;;5.90;99.90;8.00;97216.00;;;;5032476;28;20780;-68
2024/03/17 01:17:04;;;;;;;329.37;79.73;;;5.80;99.90;8.30;97221.00;;;;5030836;28;21025;-68
2024/03/17 01:19:52;;;;;;;339.17;85.80;;;5.80;99.90;8.40;97218.00;;;;5031103;28;20767;-68
2024/03/17 01:22:41;;;;;;;337.20;83.30;;;5.80;99.90;7.90;97217.00;;;;5027201;28;20229;-67
2024/03/17 01:25:30;;;;;;;340.13;85.67;;;5.80;99.90;8.00;97209.00;;;;5031269;28;20825;-68
2024/03/17 01:28:17;;;;;;;345.57;89.30;;;5.70;99.90;8.00;97218.00;;;;5030070;28;20213;-68
2024/03/17 01:31:07;;;;;;;334.70;81.77;;;5.70;99.90;7.90;97215.00;;;;5027376;28;20219;-69
2024/03/17 01:33:55;;;;;;;336.13;85.10;;;5.70;99.90;8.20;97210.00;;;;5030012;28;20488;-69
2024/03/17 01:36:42;;;;;;;339.57;84.80;;;5.70;99.90;8.00;97206.00;;;;5031586;28;20440;-69
2024/03/17 01:39:32;;;;;;;345.73;89.10;;;5.70;99.90;7.20;97208.00;;;;5042117;28;20940;-69
2024/03/17 01:42:20;;;;;;;345.87;89.10;;;5.60;99.90;6.80;97207.00;;;;5040235;28;20471;-69
2024/03/17 01:45:27;;;;;;;335.23;83.23;;;5.40;99.90;7.80;97216.00;;;;5037220;28;21181;-68
2024/03/17 01:48:19;;;;;;;340.00;84.50;;;5.40;99.90;7.90;97223.00;;;;5039762;28;20441;-69
2024/03/17 01:51:06;;;;;;;339.93;84.70;;;5.40;99.90;7.50;97215.00;;;;5036501;28;20754;-69
2024/03/17 01:53:55;;;;;;;337.30;82.53;;;5.40;99.90;7.70;97222.00;;;;5039282;28;20480;-69
2024/03/17 01:56:45;;;;;;;341.00;85.73;;;5.40;99.90;7.80;97221.00;;;;5039016;28;20976;-69
2024/03/17 01:59:33;;;;;;;337.27;84.83;;;5.40;99.90;7.90;97219.00;;;;5041133;28;20447;-69
2024/03/17 02:02:20;;;;;;;344.57;86.63;;;5.40;99.90;7.80;97220.00;;;;5044257;28;20475;-70
2024/03/17 02:05:08;;;;;;;337.63;83.63;;;5.40;99.90;7.80;97222.00;;;;5040082;28;20451;-69
2024/03/17 02:07:56;;;;;;;336.57;84.00;;;5.40;99.90;7.70;97222.00;;;;5038602;28;20441;-68
2024/03/17 02:10:44;;;;;;;338.40;83.97;;;5.30;99.90;7.70;97227.00;;;;5053304;28;20444;-68
2024/03/17 02:13:33;;;;;;;338.53;83.10;;;5.30;99.90;7.90;97221.00;;;;5043066;28;20489;-69
2024/03/17 02:16:20;;;;;;;341.77;87.57;;;5.40;99.90;7.40;97222.00;;;;5040993;28;20516;-69
2024/03/17 02:19:08;;;;;;;330.20;78.90;;;5.30;99.90;7.20;97217.00;;;;5035232;28;20441;-68
2024/03/17 02:21:55;;;;;;;334.13;83.17;;;5.30;99.90;6.90;97222.00;;;;5043015;28;20466;-68
2024/03/17 02:24:44;;;;;;;335.17;82.13;;;5.10;99.90;7.00;97226.00;;;;5051694;28;21139;-67
2024/03/17 02:27:31;;;;;;;334.93;81.47;;;5.10;99.90;7.20;97228.00;;;;5048966;28;20809;-67
2024/03/17 02:30:19;;;;;;;344.10;87.67;;;5.10;99.90;7.20;97229.00;;;;5035140;28;20438;-68
2024/03/17 02:33:06;;;;;;;334.97;82.30;;;5.10;99.90;7.40;97217.00;;;;5033274;28;20432;-68
2024/03/17 02:35:54;;;;;;;346.77;88.47;;;5.20;99.90;6.80;97220.00;;;;5042159;28;20447;-67
2024/03/17 02:41:49;;;;;;;335.37;79.93;;;5.20;99.90;7.60;97238.00;;;;5032841;28;20865;-67
2024/03/17 02:44:39;;;;;;;338.27;82.57;;;5.40;99.90;8.10;97236.00;;;;5033402;28;20456;-68
2024/03/17 02:47:27;;;;;;;340.63;84.87;;;5.50;99.90;8.30;97222.00;;;;5031294;28;20442;-67
2024/03/17 02:50:15;;;;;;;342.73;85.90;;;6.30;99.90;7.70;97235.00;;;;5049612;28;20439;-69
2024/03/17 02:53:04;;;;;;;337.73;82.80;;;5.50;99.90;7.30;97222.00;;;;5030772;28;20439;-68
2024/03/17 02:55:52;;;;;;;349.27;90.60;;;5.50;99.90;7.00;97213.00;;;;5035690;28;20557;-68
2024/03/17 02:58:41;;;;;;;335.97;81.37;;;5.30;99.90;6.80;97194.00;;;;5042133;28;20436;-67
2024/03/17 03:01:29;;;;;;;342.27;85.27;;;5.20;99.90;7.70;97204.00;;;;5027097;28;20467;-69
2024/03/17 03:04:17;;;;;;;339.20;83.93;;;5.30;99.90;8.20;97210.00;;;;5044541;28;20460;-69
2024/03/17 03:07:05;;;;;;;337.60;83.00;;;5.40;99.90;7.90;97211.00;;;;5035814;28;20435;-69
2024/03/17 03:09:54;;;;;;;338.53;84.20;;;5.50;99.90;6.50;97199.00;;;;5037691;28;20440;-69
2024/03/17 03:12:41;;;;;;;338.63;83.93;;;5.40;99.90;7.10;97212.00;;;;5038785;28;20427;-68
2024/03/17 03:15:33;;;;;;;347.37;89.50;;;5.30;99.90;8.00;97214.00;;;;5032485;28;20987;-68
2024/03/17 03:18:21;;;;;;;347.27;90.67;;;5.40;99.90;8.30;97212.00;;;;5029802;28;20439;-69
2024/03/17 03:21:09;;;;;;;334.10;81.67;;;5.60;99.90;8.60;97218.00;;;;5029228;28;20459;-66
2024/03/17 03:23:57;;;;;;;341.07;85.33;;;5.80;99.90;8.60;97226.00;;;;5033773;28;20896;-68
2024/03/17 03:26:45;;;;;;;338.07;83.37;;;5.80;99.90;8.60;97224.00;;;;5032664;28;20437;-67
2024/03/17 03:29:33;;;;;;;338.67;85.33;;;5.90;99.90;8.50;97230.00;;;;5048982;28;20452;-67
2024/03/17 03:32:22;;;;;;;345.17;88.20;;;6.00;99.90;8.10;97222.00;;;;5033798;28;20443;-68
2024/03/17 03:35:11;;;;;;;335.70;81.63;;;5.90;99.90;8.40;97236.00;;;;5028467;28;20485;-68
2024/03/17 03:37:59;;;;;;;339.63;85.13;;;5.90;99.90;8.50;97230.00;;;;5041113;28;20446;-68
2024/03/17 03:40:48;;;;;;;343.63;87.77;;;6.00;99.90;7.70;97218.00;;;;5032456;28;20443;-67
2024/03/17 03:43:36;;;;;;;342.43;87.07;;;5.90;99.90;7.90;97221.00;;;;5043765;28;20217;-68
2024/03/17 03:46:24;;;;;;;340.87;86.83;;;5.80;99.90;8.40;97230.00;;;;5046824;28;20443;-69
2024/03/17 03:49:13;;;;;;;340.23;85.53;;;5.80;99.90;8.20;97232.00;;;;5035532;28;20439;-69
2024/03/17 03:52:01;;;;;;;341.10;87.93;;;5.80;99.90;7.60;97220.00;;;;5031279;28;20436;-69
2024/03/17 03:54:53;;;;;;;336.90;83.47;;;5.80;99.90;7.10;97229.00;;;;5043436;28;20456;-70
2024/03/17 03:57:41;;;;;;;336.40;82.80;;;5.60;99.90;7.80;97230.00;;;;5044732;28;20432;-69
2024/03/17 04:00:31;;;;;;;346.97;90.13;;;5.60;99.90;8.20;97232.00;;;;5063644;28;20431;-69
2024/03/17 04:03:19;;;;;;;339.97;84.67;;;5.70;99.90;8.20;97240.00;;;;5051195;28;20475;-69
2024/03/17 04:06:10;;;;;;;339.20;84.73;;;5.80;99.90;8.60;97245.00;;;;5042688;28;20431;-70
2024/03/17 04:08:58;;;;;;;339.77;85.17;;;5.90;99.90;8.20;97238.00;;;;5044361;28;20811;-70
2024/03/17 04:11:46;;;;;;;338.93;83.43;;;5.90;99.90;7.30;97230.00;;;;5050881;28;20427;-69
2024/03/17 04:14:34;;;;;;;340.70;85.50;;;5.70;99.90;7.70;97253.00;;;;5047987;28;21184;-68
2024/03/17 04:17:22;;;;;;;344.73;87.80;;;5.70;99.90;8.30;97247.00;;;;5041724;28;20507;-69
2024/03/17 04:20:13;;;;;;;334.53;84.33;;;5.70;99.90;8.50;97252.00;;;;5046974;28;21056;-69
2024/03/17 04:23:03;;;;;;;339.33;84.37;;;5.80;99.90;8.60;97249.00;;;;5044205;28;20459;-69
2024/03/17 04:25:52;;;;;;;344.63;88.47;;;6.00;99.90;8.50;97248.00;;;;5044331;28;20443;-69
2024/03/17 04:28:40;;;;;;;332.63;81.37;;;6.00;99.90;8.40;97257.00;;;;5043445;28;20215;-67
2024/03/17 04:31:28;;;;;;;348.13;91.50;;;6.00;99.90;8.60;97268.00;;;;5046904;28;20490;-67
2024/03/17 04:34:16;;;;;;;338.70;84.67;;;6.10;99.90;8.70;97238.00;;;;5047949;28;20513;-68
2024/03/17 04:37:04;;;;;;;338.07;84.53;;;6.10;99.90;8.40;97264.00;;;;5029211;28;20439;-68
2024/03/17 04:39:57;;;;;;;337.50;83.73;;;6.20;99.90;8.70;97259.00;;;;5028235;28;20440;-68
2024/03/17 04:42:45;;;;;;;336.87;81.60;;;6.20;99.90;8.80;97260.00;;;;5046053;28;20470;-68
2024/03/17 04:45:33;;;;;;;344.80;87.03;;;6.20;99.90;8.90;97275.00;;;;5045921;28;20975;-68
2024/03/17 04:48:21;;;;;;;336.20;82.13;;;6.20;99.90;8.70;97271.00;;;;5025465;28;20440;-68
2024/03/17 04:51:08;;;;;;;335.77;81.13;;;6.20;99.90;8.40;97269.00;;;;5032836;28;20522;-68
2024/03/17 04:53:56;;;;;;;346.23;88.77;;;7.20;99.90;8.40;97269.00;;;;5052021;23;20432;-83
2024/03/17 04:56:47;;;;;;;339.13;92.53;;;6.10;99.90;8.30;97269.00;;;;5019203;28;20555;-83
2024/03/17 04:59:36;;;;;;;342.83;97.10;;;6.10;99.90;8.80;97278.00;;;;5013670;28;20443;-84
2024/03/17 05:02:24;;;;;;;344.97;88.13;;;6.20;99.90;8.70;97284.00;;;;5014229;28;20429;-83
2024/03/17 05:05:12;;;;;;;346.93;88.50;;;6.30;99.90;7.80;97278.00;;;;5010834;28;20502;-84
2024/03/17 05:08:00;;;;;;;336.77;82.73;;;6.20;99.90;7.80;97279.00;;;;5013069;28;20429;-84
2024/03/17 05:10:48;;;;;;;344.87;89.20;;;6.20;99.90;8.30;97285.00;;;;5027719;28;20466;-84
2024/03/17 05:13:39;;;;;;;340.53;84.27;;;6.20;99.90;8.80;97292.00;;;;5016786;28;20434;-84
2024/03/17 05:16:29;;;;;;;341.40;88.10;;;6.30;99.90;8.80;97296.00;;;;5018637;28;20455;-84
2024/03/17 05:19:17;;;;;;;341.53;85.53;;;6.40;99.90;9.20;97293.00;;;;5012624;28;20937;-85
2024/03/17 05:22:05;;;;;;;337.80;84.73;;;6.50;99.90;9.40;97294.00;;;;5019696;28;20437;-85
2024/03/17 05:24:53;;;;;;;338.00;85.77;;;6.70;99.90;9.20;97287.00;;;;5044531;28;20441;-83
2024/03/17 05:27:41;;;;;;;339.83;86.03;;;6.70;99.90;8.70;97293.00;;;;5019367;28;20786;-82
2024/03/17 05:30:31;;;;;;;338.40;87.33;;;6.60;99.90;8.70;97293.00;;;;5027478;28;20455;-83
2024/03/17 05:33:21;;;;;;;345.23;87.80;;;6.50;99.90;8.40;97291.00;;;;5017665;28;20486;-83
2024/03/17 05:36:09;;;;;;;349.60;93.20;;;6.50;99.90;8.70;97289.00;;;;5022230;28;20481;-83
2024/03/17 05:38:57;;;;;;;338.73;85.03;;;6.50;99.90;8.40;97292.00;;;;5016325;28;20440;-82
2024/03/17 05:41:48;;;;;;;339.83;84.50;;;6.50;99.90;8.50;97283.00;;;;5014481;28;20436;-83
2024/03/17 05:44:49;;;;;;;337.60;83.97;;;6.50;99.90;8.50;97290.00;;;;5023432;28;21000;-82
2024/03/17 05:47:41;;;;;;;340.53;88.93;;;6.50;99.90;8.30;97281.00;;;;5013448;28;20975;-83
2024/03/17 05:50:29;;;;;;;341.87;86.80;;;6.60;99.90;8.30;97284.00;;;;5013510;28;20503;-83
2024/03/17 05:53:17;;;;;;;347.90;96.63;;;6.60;99.90;8.40;97282.00;;;;5012347;28;20521;-82
2024/03/17 05:56:07;;;;;;;337.60;85.93;;;6.70;99.90;8.50;97291.00;;;;5014735;28;21007;-83
2024/03/17 05:58:55;;;;;;;343.03;88.33;;;6.80;99.90;9.00;97296.00;;;;5012969;28;20436;-82
2024/03/17 06:01:43;;;;;;;342.27;93.97;;;6.80;99.90;9.40;97300.00;;;;5011448;28;20435;-84
2024/03/17 06:04:32;;;;;;;350.30;93.50;;;6.90;99.90;9.40;97300.00;;;;5015698;28;20474;-83
2024/03/17 06:07:20;;;;;;;350.07;95.00;;;7.00;99.90;9.30;97304.00;;;;5008681;28;20209;-83
2024/03/17 06:10:09;;;;;;;355.50;96.27;;;7.10;99.90;9.80;97300.00;;;;5019473;28;20562;-83
2024/03/17 06:12:58;;;;;;;340.73;88.37;;;7.20;99.90;9.90;97308.00;;;;5015174;28;20202;-83
2024/03/17 06:15:47;;;;;;;354.53;98.70;;;7.30;99.90;9.40;97307.00;;;;5019776;28;20222;-84
2024/03/17 06:18:35;;;;;;;340.47;89.57;;;7.30;99.90;9.80;97308.00;;;;5013699;28;20213;-83
2024/03/17 06:21:24;;;;;;;353.23;97.57;;;7.20;99.90;9.20;97310.00;;;;5014195;28;20705;-82
2024/03/17 06:24:12;;;;;;;338.20;90.40;;;7.20;99.90;8.80;97305.00;;;;5019209;28;20233;-84
2024/03/17 06:27:00;;;;;;;342.40;91.73;;;7.10;99.90;8.70;97299.00;;;;5024326;28;20217;-84
2024/03/17 06:29:48;;;;;;;343.20;94.10;;;7.10;99.90;9.50;97311.00;;;;5022629;28;20213;-83
2024/03/17 06:32:35;;;;;;;345.50;94.40;;;7.20;99.90;9.90;97314.00;;;;5012215;28;20201;-83
2024/03/17 06:35:26;;;;;;;349.20;96.70;;;7.30;99.90;10.00;97319.00;;;;5014172;28;20699;-83
2024/03/17 06:38:16;;;;;;;340.17;91.37;;;7.40;99.90;9.80;97325.00;;;;5016370;28;20212;-84
2024/03/17 06:41:04;;;;;;;346.53;95.37;;;7.40;99.90;9.40;97315.00;;;;5012343;28;20222;-84
2024/03/17 06:43:52;;;;;;;360.20;100.87;;;7.40;99.90;9.60;97319.00;;;;5016341;28;20241;-84
2024/03/17 06:46:39;;;;;;;351.93;97.80;;;7.40;99.90;9.70;97316.00;;;;5001137;28;20225;-83
2024/03/17 06:49:27;;;;;;;363.97;103.30;;;7.40;99.90;10.30;97308.00;;;;4998265;28;20252;-83
2024/03/17 06:52:15;;;;;;;352.50;97.53;;;7.50;99.90;10.60;97313.00;;;;5002859;28;20205;-84
2024/03/17 06:55:06;;;;;;;351.10;96.63;;;7.70;99.90;10.90;97319.00;;;;5002532;28;20233;-84
2024/03/17 06:57:54;;;;;;;351.10;98.07;;;7.90;99.90;10.90;97313.00;;;;5003417;28;20220;-85
2024/03/17 07:00:43;;;;;;;366.13;108.60;;;8.00;99.90;11.10;97313.00;;;;5005133;28;20907;-83
2024/03/17 07:03:32;;;;;;;353.23;102.03;;;8.20;99.90;11.20;97315.00;;;;5006014;28;20236;-84
2024/03/17 07:06:20;;;;;;;352.87;101.37;;;8.30;99.90;11.30;97318.00;;;;5011083;28;20238;-85
2024/03/17 07:09:08;;;;;;;347.77;100.03;;;8.50;99.90;11.40;97316.00;;;;5011700;28;20213;-84
2024/03/17 07:11:57;;;;;;;349.43;99.03;;;8.60;99.90;11.20;97319.00;;;;5018926;28;20201;-84
2024/03/17 07:14:45;;;;;;;352.70;105.87;;;8.70;99.90;11.60;97307.00;;;;5019997;28;20201;-85
2024/03/17 07:17:33;;;;;;;358.37;104.70;;;8.80;99.90;11.50;97316.00;;;;5012974;28;20223;-84
2024/03/17 07:20:21;;;;;;;359.03;113.97;;;8.80;99.90;11.70;97308.00;;;;5018747;28;20209;-83
2024/03/17 07:23:10;;;;;;;366.37;125.97;;;9.00;99.90;12.20;97308.00;;;;5017554;28;20255;-84
2024/03/17 07:26:00;;;;;;;355.37;106.73;;;9.10;99.90;12.60;97313.00;;;;5008673;28;20232;-83
2024/03/17 07:28:49;;;;;;;362.30;109.70;;;9.40;99.90;13.10;97306.00;;;;5006670;28;20201;-85
2024/03/17 07:31:37;;;;;;;368.33;112.90;;;9.60;99.90;13.60;97312.00;;;;5004217;28;20641;-84
2024/03/17 07:34:25;;;;;;;367.83;121.40;;;9.90;99.90;13.70;97308.00;;;;5006223;28;20232;-84
2024/03/17 07:37:13;;;;;;;358.17;111.17;;;10.20;99.90;14.00;97302.00;;;;5009484;28;20207;-84
2024/03/17 07:40:01;;;;;;;359.67;114.30;;;10.50;99.90;14.30;97304.00;;;;5016953;28;20267;-84
2024/03/17 07:42:49;;;;;;;364.97;121.87;;;10.80;99.90;14.50;97309.00;;;;5025380;28;20225;-84
2024/03/17 07:45:38;;;;;;;364.60;125.40;;;11.00;99.90;14.70;97308.00;;;;5008499;28;20235;-85
2024/03/17 07:48:26;;;;;;;382.57;133.43;;;11.40;99.90;14.80;97311.00;;;;5008522;28;20202;-85
2024/03/17 07:51:16;;;;;;;366.57;128.67;;;11.50;99.90;14.60;97304.00;;;;5011851;28;20213;-85
2024/03/17 07:54:04;;;;;;;372.80;130.10;;;11.60;99.90;15.10;97301.00;;;;5006761;28;20320;-88
2024/03/17 07:56:52;;;;;;;370.70;131.70;;;11.80;99.90;15.10;97290.00;;;;5004363;28;20226;-84
2024/03/17 07:59:40;;;;;;;390.40;145.93;;;12.00;99.90;15.40;97300.00;;;;5007606;28;20265;-85
2024/03/17 08:02:30;;;;;;;383.20;141.90;;;12.10;99.90;15.40;97290.00;;;;5008511;28;20239;-84
2024/03/17 08:05:18;;;;;;;375.03;140.67;;;12.20;99.90;15.50;97286.00;;;;5005572;28;20249;-83
2024/03/17 08:08:07;;;;;;;377.00;140.87;;;12.30;99.90;15.50;97282.00;;;;5007868;28;20210;-84
2024/03/17 08:10:55;;;;;;;398.37;156.57;;;12.40;99.90;15.80;97281.00;;;;5009512;28;20771;-85
2024/03/17 08:13:43;;;;;;;373.67;140.47;;;12.60;99.90;16.00;97284.00;;;;5007042;28;20228;-85
2024/03/17 08:16:31;;;;;;;383.97;150.23;;;12.70;99.90;15.90;97274.00;;;;5007060;28;20729;-84
2024/03/17 08:19:21;;;;;;;377.40;152.07;;;12.80;99.90;15.40;97264.00;;;;5006096;28;20210;-84
2024/03/17 08:22:10;;;;;;;379.27;150.80;;;12.90;99.90;16.20;97270.00;;;;5001550;28;20221;-83
2024/03/17 08:24:58;;;;;;;374.70;152.00;;;13.00;99.90;16.60;97263.00;;;;5021684;28;20606;-83
2024/03/17 08:27:46;;;;;;;375.00;148.77;;;13.20;99.90;16.90;97269.00;;;;5002389;28;20642;-84
2024/03/17 08:30:34;;;;;;;384.47;159.73;;;13.40;99.90;16.60;97265.00;;;;5009239;28;20702;-84
2024/03/17 08:33:23;;;;;;;385.40;161.67;;;13.60;99.90;16.60;97267.00;;;;5010877;28;20851;-83
2024/03/17 08:36:12;;;;;;;378.07;157.43;;;13.70;99.90;16.90;97257.00;;;;5016532;28;20710;-85
2024/03/17 08:39:01;;;;;;;377.53;154.97;;;13.80;99.90;17.40;97260.00;;;;5010053;28;20296;-83
2024/03/17 08:41:49;;;;;;;376.03;159.53;;;14.00;99.90;17.50;97256.00;;;;5011343;28;20288;-85
2024/03/17 08:44:37;;;;;;;377.70;162.03;;;14.20;99.60;17.60;97249.00;;;;5017715;28;20231;-85
2024/03/17 08:47:25;;;;;;;375.33;167.43;;;14.30;99.30;17.50;97239.00;;;;5012821;28;20576;-85
2024/03/17 08:50:13;;;;;;;379.03;170.60;;;14.40;98.00;17.80;97255.00;;;;5013587;28;20205;-84
2024/03/17 08:53:02;;;;;;;378.43;168.70;;;14.50;97.50;18.00;97246.00;;;;5007415;28;20294;-84
2024/03/17 08:55:51;;;;;;;390.43;182.83;;;14.60;97.30;17.90;97247.00;;;;5011392;28;20233;-84
2024/03/17 08:58:40;;;;;;;389.63;199.27;;;14.70;96.30;17.60;97240.00;;;;5011484;28;20217;-84
2024/03/17 09:01:28;;;;;;;392.73;204.53;;;14.70;95.50;18.20;97243.00;;;;5007644;28;20201;-84
2024/03/17 09:04:18;;;;;;;383.77;199.93;;;14.90;96.30;18.40;97241.00;;;;5009353;28;20225;-83
2024/03/17 09:07:06;;;;;;;379.17;179.07;;;15.00;94.80;18.00;97244.00;;;;5010655;28;20204;-87
2024/03/17 09:09:56;;;;;;;378.93;180.97;;;15.10;92.70;16.90;97229.00;;;;5010076;28;20220;-84
2024/03/17 09:12:44;;;;;;;376.93;175.97;;;15.00;92.50;16.40;97236.00;;;;5013597;28;20205;-86
2024/03/17 09:15:32;;;;;;;399.07;193.37;;;14.80;92.00;16.50;97228.00;;;;5022865;28;20296;-83
2024/03/17 09:18:20;;;;;;;382.97;173.77;;;14.80;92.20;17.00;97229.00;;;;5010485;28;20284;-82
2024/03/17 09:21:10;;;;;;;380.67;181.73;;;14.80;92.80;18.10;97232.00;;;;5009163;28;20296;-81
2024/03/17 09:23:59;;;;;;;385.83;182.17;;;14.90;92.70;18.90;97241.00;;;;5009105;28;20275;-84
2024/03/17 09:26:49;;;;;;;384.83;188.70;;;15.20;93.60;19.10;97241.00;;;;5011043;28;20228;-84
2024/03/17 09:29:37;;;;;;;382.83;171.57;;;15.40;93.00;18.60;97238.00;;;;5006058;28;20209;-84
2024/03/17 09:32:26;;;;;;;397.90;199.73;;;15.60;91.90;18.30;97234.00;;;;5004504;28;20209;-83
2024/03/17 09:35:14;;;;;;;379.50;181.47;;;15.60;89.90;18.90;97233.00;;;;5010954;28;20217;-84
2024/03/17 09:38:04;;;;;;;380.37;177.27;;;15.70;90.60;17.00;97218.00;;;;5009850;28;20217;-80
2024/03/17 09:40:54;;;;;;;388.60;186.00;;;15.60;86.80;17.40;97225.00;;;;5011142;28;20266;-84
2024/03/17 09:43:45;;;;;;;383.13;181.53;;;15.40;87.20;18.60;97223.00;;;;5017951;28;20213;-85
2024/03/17 09:46:36;;;;;;;391.57;198.43;;;15.60;88.30;19.70;97233.00;;;;5013128;28;20221;-85
2024/03/17 09:49:24;;;;;;;388.80;193.17;;;15.80;90.10;19.80;97233.00;;;;5009697;28;20201;-85
2024/03/17 09:52:22;;;;;;;381.73;194.33;;;16.10;88.80;20.00;97225.00;;;;5010425;28;20264;-84
2024/03/17 09:55:14;;;;;;;376.50;186.67;;;16.40;86.40;20.10;97224.00;;;;5009669;28;20237;-83
2024/03/17 09:58:02;;;;;;;380.63;198.80;;;16.60;86.50;20.60;97222.00;;;;5010537;28;20292;-83
2024/03/17 10:00:51;;;;;;;391.47;209.90;;;16.80;83.30;20.60;97215.00;;;;5003319;28;20202;-83
2024/03/17 10:03:44;;;;;;;383.50;213.57;;;17.00;82.00;21.00;97215.00;;;;5005112;28;20401;-82
2024/03/17 10:06:33;;;;;;;402.30;229.17;;;17.40;80.50;21.80;97209.00;;;;5004273;28;20228;-81
2024/03/17 10:09:21;;;;;;;388.20;230.87;;;17.70;82.10;22.50;97209.00;;;;5007402;28;20292;-82
2024/03/17 10:12:28;;;;;;;385.87;233.67;;;18.10;82.10;21.80;97192.00;;;;5013445;28;20565;-84
2024/03/17 10:15:16;;;;;;;382.67;238.17;;;18.50;79.10;21.10;97193.00;;;;5010434;28;20232;-83
2024/03/17 10:18:23;;;;;;;394.80;258.73;;;18.60;74.80;22.20;97183.00;;;;5011927;28;20584;-84
2024/03/17 10:21:27;;;;;;;390.23;251.93;;;18.70;75.50;22.60;97214.00;;;;5010539;28;20815;-84
2024/03/17 10:24:21;;;;;;;384.83;250.57;;;18.90;76.30;21.40;97192.00;;;;5014084;28;20224;-86
2024/03/17 10:27:12;;;;;;;382.67;238.40;;;18.80;72.00;21.60;97181.00;;;;5011759;28;20694;-86
2024/03/17 10:30:00;;;;;;;393.17;262.13;;;18.70;73.00;22.40;97189.00;;;;5007455;28;20214;-85
2024/03/17 10:32:53;;;;;;;395.60;258.33;;;18.80;74.10;22.50;97180.00;;;;5010467;28;20205;-85
2024/03/17 10:35:43;;;;;;;393.50;254.50;;;19.00;72.70;22.80;97181.00;;;;5003354;28;20217;-83
2024/03/17 10:38:31;;;;;;;407.80;289.93;;;19.10;73.70;22.40;97183.00;;;;5009120;28;20218;-84
2024/03/17 10:41:20;;;;;;;424.33;292.67;;;19.20;71.40;21.30;97176.00;;;;5005607;28;20205;-84
2024/03/17 10:44:08;;;;;;;398.30;282.33;;;19.10;70.90;22.70;97176.00;;;;5008943;28;20217;-83
2024/03/17 10:46:58;;;;;;;401.03;289.67;;;19.10;70.20;22.30;97186.00;;;;5012206;28;20229;-81
2024/03/17 10:49:47;;;;;;;392.77;282.70;;;19.20;67.40;22.00;97151.00;;;;5010088;28;20208;-86
2024/03/17 10:52:42;;;;;;;421.17;301.10;;;19.00;66.90;23.10;97161.00;;;;5008251;28;20216;-86
2024/03/17 10:55:41;;;;;;;408.40;302.70;;;19.30;68.90;23.20;97199.00;;;;5011050;28;21015;-85
2024/03/17 10:58:37;;;;;;;419.40;319.03;;;19.50;69.80;22.60;97195.00;;;;5010502;28;20349;-86
2024/03/17 11:01:26;;;;;;;412.87;318.07;;;19.80;69.00;20.30;97193.00;;;;5008529;28;20658;-83
2024/03/17 11:04:16;;;;;;;401.33;306.97;;;19.10;65.30;21.10;97130.00;;;;5027483;28;20209;-82
2024/03/17 11:07:04;;;;;;;403.77;303.77;;;18.80;65.90;21.40;97176.00;;;;5009380;28;20879;-82
2024/03/17 11:09:57;;;;;;;420.73;322.60;;;18.70;66.50;21.10;97186.00;;;;5009151;28;20200;-82
2024/03/17 11:17:19;;;;;;;404.87;282.67;;;17.30;72.40;20.80;97178.00;;;;5049886;23;20235;-68
2024/03/17 11:20:28;;;;;;;393.07;256.67;;;18.00;75.80;21.80;97124.00;;;;5039827;28;20629;-67
2024/03/17 11:23:29;;;;;;;386.43;256.93;;;18.10;75.40;22.20;97159.00;;;;5022722;28;20205;-67
2024/03/17 11:26:33;;;;;;;393.87;285.57;;;18.50;77.60;23.30;97127.00;;;;5024904;28;20237;-67
2024/03/17 11:29:32;;;;;;;393.63;284.30;;;19.00;79.40;22.90;97133.00;;;;5027410;28;20226;-67
2024/03/17 11:32:27;;;;;;;403.83;321.70;;;19.70;78.30;23.60;97128.00;;;;5024300;28;20209;-66
2024/03/17 11:35:15;;;;;;;407.57;322.83;;;20.30;76.50;24.90;97120.00;;;;5025250;28;20615;-67
2024/03/17 11:38:03;;;;;;;423.63;353.03;;;20.50;77.70;24.90;97123.00;;;;5024249;28;20209;-68
2024/03/17 11:40:50;;;;;;;421.40;361.13;;;21.00;75.50;24.10;97171.00;;;;5026368;28;20213;-68
2024/03/17 11:43:39;;;;;;;423.90;376.50;;;21.30;72.70;24.50;97145.00;;;;5021876;28;20204;-68
2024/03/17 11:46:27;;;;;;;445.90;397.70;;;21.30;73.20;23.40;97162.00;;;;5022683;28;20236;-67
2024/03/17 11:49:20;;;;;;;438.50;391.67;;;21.20;70.80;22.90;97165.00;;;;5030077;28;20270;-69
2024/03/17 11:52:11;;;;;;;435.27;387.87;;;20.80;70.50;22.20;97164.00;;;;5024039;28;20223;-68
2024/03/17 11:54:59;;;;;;;422.90;375.83;;;20.30;69.60;23.30;97162.00;;;;5040495;28;20221;-68
2024/03/17 11:57:46;;;;;;;416.83;370.27;;;20.20;70.40;22.10;97104.00;;;;5026496;28;20223;-68
2024/03/17 12:00:35;;;;;;;431.23;377.93;;;20.00;70.50;21.50;97090.00;;;;5024147;28;20209;-68
2024/03/17 12:03:22;;;;;;;420.87;362.57;;;19.90;69.70;23.90;97087.00;;;;5025101;28;20205;-67
2024/03/17 12:06:15;;;;;;;421.20;363.57;;;20.10;72.00;25.80;97087.00;;;;5026354;28;20220;-68
2024/03/17 12:09:11;;;;;;;437.90;389.90;;;20.70;74.20;24.90;97138.00;;;;5021324;28;20217;-68
2024/03/17 12:12:02;;;;;;;443.37;396.17;;;21.20;72.30;24.90;97133.00;;;;5026111;28;20196;-68
2024/03/17 12:14:50;;;;;;;454.83;407.10;;;21.50;70.40;23.20;97134.00;;;;5021023;28;20232;-69
2024/03/17 12:17:40;;;;;;;457.23;408.93;;;21.40;67.10;20.50;97117.00;;;;5024402;28;20201;-70
2024/03/17 12:20:28;;;;;;;445.67;397.37;;;20.30;66.00;23.60;97059.00;;;;5024609;28;20666;-70